createdAt,value
2018-07-24T00:02:23.728Z,67.50
2018-07-24T00:04:55.177Z,67.40
2018-07-24T00:07:26.352Z,67.50
2018-07-24T00:09:57.163Z,67.60
2018-07-24T00:12:29.179Z,67.40
2018-07-24T00:15:00.380Z,67.40
2018-07-24T00:17:31.612Z,67.30
2018-07-24T00:20:03.076Z,67.40
2018-07-24T00:22:34.507Z,67.70
2018-07-24T00:25:05.955Z,67.60
2018-07-24T00:27:37.814Z,67.60
2018-07-24T00:30:08.571Z,67.70
2018-07-24T00:32:39.377Z,67.90
2018-07-24T00:35:10.574Z,68.00
2018-07-24T00:37:41.854Z,67.90
2018-07-24T00:40:13.289Z,67.70
2018-07-24T00:42:44.946Z,68.00
2018-07-24T00:45:16.594Z,68.00
2018-07-24T00:47:48.471Z,67.90
2018-07-24T00:50:19.830Z,67.90
2018-07-24T00:52:51.514Z,67.90
2018-07-24T00:55:23.550Z,68.00
2018-07-24T00:57:54.316Z,68.30
2018-07-24T01:00:26.057Z,68.60
2018-07-24T01:02:57.889Z,68.70
2018-07-24T01:05:28.995Z,68.50
2018-07-24T01:07:59.499Z,68.50
2018-07-24T01:10:31.095Z,68.50
2018-07-24T01:13:02.614Z,68.50
2018-07-24T01:15:34.218Z,68.70
2018-07-24T01:18:05.291Z,69.00
2018-07-24T01:20:37.510Z,69.00
2018-07-24T01:23:09.044Z,69.10
2018-07-24T01:25:39.864Z,69.20
2018-07-24T01:28:11.047Z,69.30
2018-07-24T01:30:42.356Z,69.10
2018-07-24T01:33:13.001Z,69.00
2018-07-24T01:35:43.549Z,69.30
2018-07-24T01:38:15.512Z,69.30
2018-07-24T01:40:47.009Z,69.40
2018-07-24T01:43:18.234Z,69.50
2018-07-24T01:45:49.660Z,69.50
2018-07-24T01:48:21.070Z,69.50
2018-07-24T01:50:51.975Z,69.80
2018-07-24T01:53:23.343Z,69.70
2018-07-24T01:55:55.410Z,70.00
2018-07-24T01:58:26.560Z,70.00
2018-07-24T02:01:02.039Z,69.80
2018-07-24T02:03:33.999Z,69.90
2018-07-24T02:06:05.029Z,70.10
2018-07-24T02:08:36.061Z,70.30
2018-07-24T02:11:07.078Z,70.50
2018-07-24T02:13:38.614Z,70.60
2018-07-24T02:16:09.916Z,70.70
2018-07-24T02:18:40.696Z,70.70
2018-07-24T02:21:11.628Z,70.70
2018-07-24T02:26:12.399Z,70.60
2018-07-24T02:28:45.158Z,70.70
2018-07-24T02:31:16.188Z,71.00
2018-07-24T02:33:47.870Z,71.10
2018-07-24T02:38:48.496Z,70.90
2018-07-24T02:41:19.469Z,71.00
2018-07-24T02:43:50.173Z,71.00
2018-07-24T02:46:22.126Z,71.20
2018-07-24T02:48:53.643Z,71.00
2018-07-24T02:51:24.985Z,71.00
2018-07-24T02:53:57.035Z,71.20
2018-07-24T02:56:28.325Z,71.10
2018-07-24T02:58:59.514Z,71.20
2018-07-24T03:01:31.721Z,71.20
2018-07-24T03:04:02.729Z,71.40
2018-07-24T03:06:34.596Z,71.50
2018-07-24T03:09:07.248Z,71.50
2018-07-24T03:11:39.199Z,71.80
2018-07-24T03:14:10.488Z,71.90
2018-07-24T03:16:41.881Z,71.70
2018-07-24T03:19:13.292Z,71.80
2018-07-24T03:21:44.956Z,71.90
2018-07-24T03:24:16.586Z,71.70
2018-07-24T03:26:48.209Z,71.80
2018-07-24T03:29:19.252Z,72.10
2018-07-24T03:31:50.907Z,71.90
2018-07-24T03:34:22.659Z,72.10
2018-07-24T03:36:54.032Z,72.20
2018-07-24T03:39:25.689Z,72.10
2018-07-24T03:41:56.380Z,72.20
2018-07-24T03:44:27.278Z,72.30
2018-07-24T03:46:58.794Z,72.20
2018-07-24T03:49:30.105Z,72.30
2018-07-24T03:52:01.191Z,72.40
2018-07-24T03:54:32.021Z,72.50
2018-07-24T03:57:03.917Z,72.60
2018-07-24T03:59:35.384Z,72.70
2018-07-24T04:02:06.481Z,72.60
2018-07-24T04:04:38.456Z,72.50
2018-07-24T04:07:09.380Z,72.50
2018-07-24T04:09:40.093Z,72.50
2018-07-24T04:12:11.057Z,72.50
2018-07-24T04:14:41.781Z,72.50
2018-07-24T04:17:13.252Z,72.50
2018-07-24T04:19:44.356Z,72.40
2018-07-24T04:22:15.949Z,71.90
2018-07-24T04:24:47.409Z,72.00
2018-07-24T04:27:18.789Z,71.90
2018-07-24T04:29:49.159Z,72.00
2018-07-24T04:32:20.691Z,72.10
2018-07-24T04:34:52.164Z,72.10
2018-07-24T04:37:23.051Z,72.30
2018-07-24T04:39:54.418Z,72.30
2018-07-24T04:42:26.300Z,72.20
2018-07-24T04:44:58.218Z,72.30
2018-07-24T04:52:31.324Z,72.60
2018-07-24T04:55:02.335Z,72.60
2018-07-24T04:57:34.164Z,72.70
2018-07-24T05:00:05.130Z,72.80
2018-07-24T05:02:36.707Z,72.90
2018-07-24T05:05:07.604Z,72.90
2018-07-24T05:07:38.709Z,72.80
2018-07-24T05:10:10.232Z,72.90
2018-07-24T05:15:13.026Z,72.70
2018-07-24T05:17:43.752Z,72.70
2018-07-24T05:20:14.817Z,72.70
2018-07-24T05:22:45.994Z,72.90
2018-07-24T05:25:16.543Z,72.70
2018-07-24T05:27:47.800Z,72.90
2018-07-24T05:30:18.936Z,72.80
2018-07-24T05:32:49.784Z,72.70
2018-07-24T05:35:20.989Z,72.60
2018-07-24T05:37:52.417Z,72.40
2018-07-24T05:40:22.992Z,72.50
2018-07-24T05:42:54.089Z,72.20
2018-07-24T05:45:25.124Z,72.00
2018-07-24T05:47:56.101Z,71.80
2018-07-24T05:50:27.299Z,71.90
2018-07-24T05:52:58.120Z,71.70
2018-07-24T05:55:28.723Z,71.40
2018-07-24T05:58:00.036Z,71.20
2018-07-24T06:00:31.446Z,71.10
2018-07-24T06:03:02.923Z,70.90
2018-07-24T06:05:34.387Z,70.40
2018-07-24T06:08:06.098Z,70.20
2018-07-24T06:10:37.355Z,70.10
2018-07-24T06:13:09.002Z,69.70
2018-07-24T06:15:40.558Z,69.40
2018-07-24T06:18:12.324Z,68.50
2018-07-24T06:20:43.076Z,67.60
2018-07-24T06:23:14.624Z,68.10
2018-07-24T06:25:45.961Z,68.10
2018-07-24T06:28:16.492Z,68.50
2018-07-24T06:30:47.763Z,68.40
2018-07-24T06:33:19.072Z,66.60
2018-07-24T06:35:49.696Z,67.00
2018-07-24T06:38:22.533Z,67.20
2018-07-24T06:40:53.512Z,67.00
2018-07-24T06:43:24.380Z,66.90
2018-07-24T06:45:55.246Z,66.50
2018-07-24T06:48:26.220Z,66.70
2018-07-24T06:50:56.933Z,65.80
2018-07-24T06:53:28.219Z,65.50
2018-07-24T06:55:58.938Z,64.70
2018-07-24T06:58:30.057Z,64.70
2018-07-24T07:01:01.404Z,64.60
2018-07-24T07:03:32.591Z,63.60
2018-07-24T07:06:03.845Z,63.70
2018-07-24T07:08:35.405Z,61.90
2018-07-24T07:11:06.061Z,61.30
2018-07-24T07:13:37.314Z,60.70
2018-07-24T07:16:08.565Z,57.80
2018-07-24T07:21:09.768Z,56.30
2018-07-24T07:23:40.723Z,55.70
2018-07-24T07:26:12.519Z,55.70
2018-07-24T07:28:43.468Z,55.60
2018-07-24T07:31:14.959Z,55.50
2018-07-24T07:33:46.000Z,55.00
2018-07-24T07:36:16.922Z,55.10
2018-07-24T07:38:48.740Z,55.70
2018-07-24T07:41:19.790Z,55.50
2018-07-24T07:43:50.996Z,55.60
2018-07-24T07:46:21.932Z,54.40
2018-07-24T07:48:53.671Z,53.30
2018-07-24T07:51:24.459Z,53.10
2018-07-24T07:53:55.104Z,52.80
2018-07-24T07:56:26.323Z,52.70
2018-07-24T07:58:57.489Z,53.20
2018-07-24T08:01:27.603Z,53.80
2018-07-24T08:03:58.927Z,53.80
2018-07-24T08:06:29.637Z,52.10
2018-07-24T08:09:01.238Z,52.80
2018-07-24T08:11:31.633Z,53.10
2018-07-24T08:14:02.653Z,52.60
2018-07-24T08:16:33.696Z,52.20
2018-07-24T08:19:04.183Z,51.70
2018-07-24T08:21:34.254Z,51.90
2018-07-24T08:26:34.314Z,51.50
2018-07-24T08:29:05.173Z,50.70
2018-07-24T08:31:36.699Z,50.90
2018-07-24T08:34:07.938Z,50.20
2018-07-24T08:36:38.634Z,49.80
2018-07-24T08:39:12.737Z,48.90
2018-07-24T08:41:44.281Z,48.70
2018-07-24T08:44:16.954Z,48.50
2018-07-24T08:46:47.953Z,48.70
2018-07-24T08:49:19.956Z,48.50
2018-07-24T08:51:50.700Z,47.40
2018-07-24T08:54:21.945Z,48.40
2018-07-24T08:56:53.036Z,47.90
2018-07-24T08:59:23.655Z,48.00
2018-07-24T09:01:54.667Z,47.40
2018-07-24T09:04:26.655Z,46.80
2018-07-24T09:06:58.066Z,47.00
2018-07-24T09:09:29.218Z,46.60
2018-07-24T09:12:00.791Z,46.80
2018-07-24T09:14:32.312Z,46.70
2018-07-24T09:17:03.556Z,46.00
2018-07-24T09:19:34.533Z,44.90
2018-07-24T09:22:05.441Z,45.00
2018-07-24T09:24:37.179Z,45.10
2018-07-24T09:27:08.960Z,44.70
2018-07-24T09:29:39.555Z,43.80
2018-07-24T09:32:10.307Z,43.60
2018-07-24T09:34:41.515Z,42.20
2018-07-24T09:37:12.730Z,41.50
2018-07-24T09:39:43.986Z,41.70
2018-07-24T09:42:14.280Z,41.10
2018-07-24T09:44:44.492Z,39.60
2018-07-24T09:47:15.727Z,40.00
2018-07-24T09:49:46.448Z,39.30
2018-07-24T09:52:16.902Z,38.00
2018-07-24T09:54:47.955Z,37.30
2018-07-24T09:57:18.907Z,37.30
2018-07-24T09:59:49.900Z,35.70
2018-07-24T10:02:21.574Z,34.90
2018-07-24T10:07:22.601Z,34.10
2018-07-24T10:09:53.009Z,34.70
2018-07-24T10:12:24.003Z,34.90
2018-07-24T10:14:55.264Z,34.90
2018-07-24T10:17:26.392Z,35.10
2018-07-24T10:19:57.321Z,35.60
2018-07-24T10:22:28.114Z,36.40
2018-07-24T10:24:59.890Z,36.80
2018-07-24T10:27:31.412Z,36.70
2018-07-24T10:30:03.240Z,36.80
2018-07-24T10:32:34.007Z,37.30
2018-07-24T10:35:05.827Z,37.20
2018-07-24T10:37:36.943Z,37.20
2018-07-24T10:40:08.724Z,37.30
2018-07-24T10:42:40.961Z,37.50
2018-07-24T10:45:14.056Z,37.70
2018-07-24T10:47:46.547Z,38.00
2018-07-24T10:50:17.366Z,38.80
2018-07-24T10:52:48.364Z,39.80
2018-07-24T10:55:19.090Z,39.80
2018-07-24T10:57:50.915Z,39.50
2018-07-24T11:00:21.519Z,39.50
2018-07-24T11:02:52.806Z,40.00
2018-07-24T11:05:26.057Z,39.60
2018-07-24T11:07:57.511Z,39.80
2018-07-24T11:10:28.822Z,39.90
2018-07-24T11:13:00.326Z,40.30
2018-07-24T11:15:31.854Z,40.30
2018-07-24T11:18:02.898Z,39.90
2018-07-24T11:20:33.741Z,40.20
2018-07-24T11:23:04.991Z,40.40
2018-07-24T11:25:37.277Z,40.00
2018-07-24T11:28:08.835Z,39.80
2018-07-24T11:30:40.000Z,39.70
2018-07-24T11:33:10.978Z,39.20
2018-07-24T11:35:42.108Z,40.60
2018-07-24T11:38:13.376Z,39.90
2018-07-24T11:40:44.726Z,40.90
2018-07-24T11:43:16.250Z,40.10
2018-07-24T11:45:48.381Z,40.60
2018-07-24T11:48:19.533Z,40.60
2018-07-24T11:50:50.672Z,40.20
2018-07-24T11:53:21.656Z,39.30
2018-07-24T11:55:52.582Z,39.40
2018-07-24T11:58:23.795Z,39.50
2018-07-24T12:00:55.279Z,38.90
2018-07-24T12:03:26.544Z,38.80
2018-07-24T12:05:57.847Z,38.30
2018-07-24T12:08:28.572Z,38.60
2018-07-24T12:10:59.923Z,39.10
2018-07-24T12:13:30.386Z,38.70
2018-07-24T12:16:02.341Z,38.00
2018-07-24T12:18:33.245Z,37.20
2018-07-24T12:21:03.855Z,37.10
2018-07-24T12:23:34.243Z,37.70
2018-07-24T12:26:05.146Z,37.60
2018-07-24T12:28:35.562Z,37.50
2018-07-24T12:31:06.838Z,38.10
2018-07-24T12:33:38.034Z,38.50
2018-07-24T12:36:09.326Z,37.80
2018-07-24T12:38:40.272Z,37.80
2018-07-24T12:41:12.911Z,37.90
2018-07-24T12:43:43.286Z,37.60
2018-07-24T12:46:13.495Z,36.70
2018-07-24T12:48:43.476Z,37.10
2018-07-24T12:51:14.450Z,37.30
2018-07-24T12:53:45.589Z,36.70
2018-07-24T12:56:17.296Z,36.50
2018-07-24T12:58:47.154Z,36.30
2018-07-24T13:01:17.987Z,36.10
2018-07-24T13:03:48.863Z,35.90
2018-07-24T13:06:19.040Z,36.00
2018-07-24T13:08:49.607Z,36.80
2018-07-24T13:11:21.374Z,37.00
2018-07-24T13:13:53.194Z,37.80
2018-07-24T13:16:24.313Z,36.70
2018-07-24T13:18:55.738Z,36.40
2018-07-24T13:21:26.735Z,37.10
2018-07-24T13:23:58.403Z,38.10
2018-07-24T13:26:29.804Z,37.90
2018-07-24T13:29:01.294Z,37.20
2018-07-24T13:31:32.799Z,37.50
2018-07-24T13:34:03.693Z,36.80
2018-07-24T13:36:35.039Z,36.30
2018-07-24T13:39:08.462Z,36.00
2018-07-24T13:41:39.840Z,36.10
2018-07-24T13:44:10.773Z,35.80
2018-07-24T13:46:42.252Z,35.40
2018-07-24T13:49:12.489Z,36.20
2018-07-24T13:51:43.613Z,36.80
2018-07-24T13:54:14.539Z,36.70
2018-07-24T13:56:45.358Z,36.40
2018-07-24T13:59:15.957Z,36.30
2018-07-24T14:01:47.551Z,36.10
2018-07-24T14:04:18.987Z,35.80
2018-07-24T14:06:49.095Z,36.00
2018-07-24T14:09:20.517Z,36.10
2018-07-24T14:11:51.554Z,35.50
2018-07-24T14:14:22.290Z,35.40
2018-07-24T14:16:53.323Z,35.50
2018-07-24T14:19:24.298Z,35.20
2018-07-24T14:21:55.765Z,34.70
2018-07-24T14:24:26.009Z,34.90
2018-07-24T14:26:58.574Z,34.90
2018-07-24T14:29:29.908Z,36.00
2018-07-24T14:32:01.120Z,35.80
2018-07-24T14:34:31.709Z,36.60
2018-07-24T14:37:02.728Z,35.40
2018-07-24T14:39:33.793Z,34.70
2018-07-24T14:42:03.938Z,34.80
2018-07-24T14:44:35.671Z,34.20
2018-07-24T14:47:07.704Z,33.90
2018-07-24T14:52:09.251Z,34.10
2018-07-24T14:54:40.496Z,33.60
2018-07-24T14:57:11.559Z,34.30
2018-07-24T15:02:13.083Z,34.20
2018-07-24T15:04:44.476Z,34.20
2018-07-24T15:07:15.427Z,33.60
2018-07-24T15:09:46.190Z,33.60
2018-07-24T15:12:16.938Z,33.60
2018-07-24T15:14:47.591Z,34.50
2018-07-24T15:17:18.424Z,35.10
2018-07-24T15:19:49.141Z,34.70
2018-07-24T15:22:20.141Z,34.40
2018-07-24T15:24:50.559Z,33.70
2018-07-24T15:27:21.248Z,34.50
2018-07-24T15:29:51.271Z,32.90
2018-07-24T15:32:21.501Z,33.10
2018-07-24T15:34:52.318Z,33.00
2018-07-24T15:37:23.433Z,33.00
2018-07-24T15:39:54.028Z,32.70
2018-07-24T15:42:25.341Z,34.30
2018-07-24T15:44:56.615Z,33.30
2018-07-24T15:47:27.376Z,33.40
2018-07-24T15:49:58.961Z,33.80
2018-07-24T15:52:30.093Z,33.80
2018-07-24T15:55:00.994Z,34.60
2018-07-24T15:57:33.151Z,34.00
2018-07-24T16:00:04.410Z,34.30
2018-07-24T16:02:35.925Z,34.20
2018-07-24T16:05:07.821Z,34.60
2018-07-24T16:10:09.741Z,34.20
2018-07-24T16:12:41.770Z,35.10
2018-07-24T16:15:12.989Z,34.40
2018-07-24T16:17:43.830Z,33.80
2018-07-24T16:20:14.478Z,34.00
2018-07-24T16:22:45.223Z,34.40
2018-07-24T16:25:16.291Z,34.60
2018-07-24T16:27:47.664Z,34.70
2018-07-24T16:30:18.162Z,34.80
2018-07-24T16:32:49.235Z,35.00
2018-07-24T16:35:20.759Z,34.50
2018-07-24T16:37:52.441Z,34.90
2018-07-24T16:40:23.335Z,36.20
2018-07-24T16:42:54.219Z,35.20
2018-07-24T16:45:25.518Z,35.20
2018-07-24T16:47:56.768Z,36.10
2018-07-24T16:50:28.320Z,35.30
2018-07-24T16:53:00.821Z,35.70
2018-07-24T16:55:31.884Z,35.80
2018-07-24T16:58:03.140Z,35.60
2018-07-24T17:00:33.684Z,36.40
2018-07-24T17:03:05.422Z,35.70
2018-07-24T17:05:35.955Z,35.30
2018-07-24T17:08:07.018Z,35.40
2018-07-24T17:10:38.063Z,35.30
2018-07-24T17:13:09.204Z,35.60
2018-07-24T17:15:39.615Z,35.20
2018-07-24T17:18:10.666Z,35.70
2018-07-24T17:20:41.020Z,35.30
2018-07-24T17:23:12.115Z,36.00
2018-07-24T17:25:42.913Z,35.50
2018-07-24T17:28:15.106Z,36.10
2018-07-24T17:30:46.266Z,36.70
2018-07-24T17:33:17.982Z,35.60
2018-07-24T17:38:18.590Z,35.80
2018-07-24T17:40:48.965Z,36.80
2018-07-24T17:43:20.481Z,36.50
2018-07-24T17:45:51.277Z,36.30
2018-07-24T17:48:21.194Z,36.10
2018-07-24T17:50:51.666Z,36.20
2018-07-24T17:53:22.052Z,36.20
2018-07-24T17:55:53.394Z,35.60
2018-07-24T17:58:23.886Z,36.10
2018-07-24T18:00:54.630Z,36.70
2018-07-24T18:03:25.167Z,36.90
2018-07-24T18:05:55.769Z,37.40
2018-07-24T18:08:29.338Z,37.50
2018-07-24T18:11:00.212Z,37.60
2018-07-24T18:13:30.809Z,37.50
2018-07-24T18:16:01.565Z,37.80
2018-07-24T18:18:33.355Z,38.30
2018-07-24T18:21:05.069Z,38.50
2018-07-24T18:26:06.286Z,38.90
2018-07-24T18:28:38.302Z,39.20
2018-07-24T18:31:09.188Z,40.00
2018-07-24T18:33:40.373Z,40.90
2018-07-24T18:36:11.355Z,41.10
2018-07-24T18:38:43.102Z,41.20
2018-07-24T18:41:14.464Z,41.30
2018-07-24T18:43:45.641Z,41.30
2018-07-24T18:46:16.982Z,41.60
2018-07-24T18:48:48.301Z,42.20
2018-07-24T18:51:19.306Z,42.40
2018-07-24T18:53:50.500Z,42.70
2018-07-24T18:56:21.929Z,43.00
2018-07-24T18:58:53.512Z,43.30
2018-07-24T19:01:23.978Z,43.70
2018-07-24T19:03:55.825Z,43.70
2018-07-24T19:06:27.619Z,44.30
2018-07-24T19:08:59.065Z,44.60
2018-07-24T19:11:29.283Z,45.00
2018-07-24T19:13:59.974Z,45.00
2018-07-24T19:16:30.345Z,45.70
2018-07-24T19:19:02.204Z,46.20
2018-07-24T19:21:33.004Z,46.60
2018-07-24T19:24:04.438Z,46.80
2018-07-24T19:26:35.341Z,47.10
2018-07-24T19:29:06.509Z,47.50
2018-07-24T19:31:37.498Z,47.50
2018-07-24T19:36:38.577Z,48.30
2018-07-24T19:39:11.048Z,48.90
2018-07-24T19:41:41.764Z,49.20
2018-07-24T19:44:12.760Z,49.10
2018-07-24T19:46:43.641Z,48.60
2018-07-24T19:49:14.869Z,48.60
2018-07-24T19:51:45.261Z,49.00
2018-07-24T19:54:16.203Z,48.80
2018-07-24T19:56:47.160Z,49.10
2018-07-24T19:59:19.203Z,49.00
2018-07-24T20:01:50.643Z,50.10
2018-07-24T20:04:21.237Z,50.20
2018-07-24T20:06:51.529Z,50.90
2018-07-24T20:09:22.876Z,50.70
2018-07-24T20:11:53.308Z,50.30
2018-07-24T20:14:24.627Z,50.80
2018-07-24T20:16:56.118Z,50.50
2018-07-24T20:19:27.106Z,50.70
2018-07-24T20:21:57.996Z,51.30
2018-07-24T20:24:28.797Z,51.60
2018-07-24T20:26:59.767Z,51.90
2018-07-24T20:29:30.448Z,52.20
2018-07-24T20:32:00.926Z,51.80
2018-07-24T20:34:32.927Z,52.10
2018-07-24T20:37:04.488Z,51.80
2018-07-24T20:39:36.391Z,51.90
2018-07-24T20:42:07.560Z,52.30
2018-07-24T20:44:38.715Z,52.30
2018-07-24T20:47:10.199Z,52.60
2018-07-24T20:49:41.725Z,52.60
2018-07-24T20:52:12.271Z,52.50
2018-07-24T20:54:44.173Z,53.10
2018-07-24T20:57:15.004Z,53.30
2018-07-24T20:59:47.527Z,53.70
2018-07-24T21:02:19.116Z,53.70
2018-07-24T21:04:50.293Z,53.60
2018-07-24T21:07:21.292Z,53.70
2018-07-24T21:09:54.084Z,53.90
2018-07-24T21:12:25.664Z,54.30
2018-07-24T21:14:57.663Z,54.40
2018-07-24T21:17:28.184Z,53.80
2018-07-24T21:20:00.090Z,53.90
2018-07-24T21:22:30.992Z,54.30
2018-07-24T21:25:01.562Z,54.70
2018-07-24T21:27:32.042Z,55.20
2018-07-24T21:30:05.842Z,55.10
2018-07-24T21:32:37.395Z,55.40
2018-07-24T21:35:08.649Z,55.60
2018-07-24T21:37:39.465Z,55.20
2018-07-24T21:40:09.868Z,55.30
2018-07-24T21:42:41.221Z,55.10
2018-07-24T21:45:12.435Z,55.00
2018-07-24T21:47:43.114Z,55.60
2018-07-24T21:50:14.332Z,55.70
2018-07-24T21:52:44.709Z,55.70
2018-07-24T21:57:47.012Z,55.70
2018-07-24T22:00:18.907Z,56.10
2018-07-24T22:02:50.470Z,56.20
2018-07-24T22:05:22.160Z,56.00
2018-07-24T22:07:54.272Z,56.40
2018-07-24T22:10:25.123Z,56.60
2018-07-24T22:12:56.265Z,56.70
2018-07-24T22:15:29.297Z,56.80
2018-07-24T22:18:00.887Z,56.50
2018-07-24T22:20:31.974Z,56.60
2018-07-24T22:25:33.597Z,57.40
2018-07-24T22:28:04.715Z,57.50
2018-07-24T22:30:35.634Z,57.60
2018-07-24T22:33:06.485Z,57.80
2018-07-24T22:35:38.016Z,57.80
2018-07-24T22:38:09.205Z,57.80
2018-07-24T22:40:41.341Z,58.10
2018-07-24T22:43:12.597Z,58.00
2018-07-24T22:45:44.853Z,57.90
2018-07-24T22:48:16.484Z,57.50
2018-07-24T22:50:48.221Z,57.70
2018-07-24T22:53:18.840Z,58.10
2018-07-24T22:55:50.668Z,58.00
2018-07-24T22:58:21.894Z,58.20
2018-07-24T23:00:54.071Z,58.30
2018-07-24T23:03:25.158Z,58.50
2018-07-24T23:05:57.706Z,58.60
2018-07-24T23:08:30.043Z,58.80
2018-07-24T23:11:02.573Z,58.70
2018-07-24T23:13:34.562Z,58.80
2018-07-24T23:16:06.166Z,58.70
2018-07-24T23:18:38.016Z,58.80
2018-07-24T23:21:09.651Z,59.00
2018-07-24T23:23:40.240Z,59.10
2018-07-24T23:28:42.537Z,59.70
2018-07-24T23:31:13.717Z,60.10
2018-07-24T23:33:45.043Z,59.40
2018-07-24T23:36:15.464Z,59.00
2018-07-24T23:38:46.826Z,59.30
2018-07-24T23:41:17.942Z,59.40
2018-07-24T23:43:49.478Z,59.20
2018-07-24T23:46:20.699Z,59.90
2018-07-24T23:48:52.456Z,59.50
2018-07-24T23:51:23.508Z,59.70
2018-07-24T23:53:55.486Z,59.80
2018-07-24T23:56:26.572Z,60.10
2018-07-24T23:58:58.574Z,60.20
